| time (UTC) | temp F | wind direction | speed MPH | gust MPH | rain 1hr in | rain 24hr in | rain mn in | humidity % | barometer mb |
| 20260505003603 | 55 | 252 | 2.0 | 7.0 | 0.00 | 0.00 | 0.00 | 54 | 1022.6 |
| 20260505002703 | 56 | 252 | 3.0 | 7.0 | 0.00 | 0.00 | 0.00 | 53 | 1023.0 |
| 20260505002017 | 56 | 231 | 3.0 | 7.0 | 0.00 | 0.00 | 0.00 | 52 | 1022.6 |
| 20260505000903 | 56 | 232 | 3.0 | 6.0 | 0.00 | 0.00 | 0.00 | 50 | 1022.6 |
| 20260505000003 | 57 | 232 | 4.0 | 10.0 | 0.00 | 0.00 | 0.00 | 48 | 1022.6 |
| 20260504235403 | 57 | 239 | 3.0 | 7.0 | 0.00 | 0.00 | 0.00 | 48 | 1022.6 |
| 20260504234503 | 58 | 240 | 2.0 | 7.0 | 0.00 | 0.00 | 0.00 | 48 | 1022.6 |
| 20260504233603 | 58 | 234 | 3.0 | 6.0 | 0.00 | 0.00 | 0.00 | 45 | 1022.6 |
| 20260504232703 | 59 | 219 | 2.0 | 6.0 | 0.00 | 0.00 | 0.00 | 44 | 1022.6 |
| 20260504231803 | 60 | 221 | 3.0 | 7.0 | 0.00 | 0.00 | 0.00 | 43 | 1022.6 |
| 20260504230903 | 61 | 223 | 3.0 | 8.0 | 0.00 | 0.00 | 0.00 | 41 | 1022.6 |
| 20260504230003 | 61 | 225 | 3.0 | 8.0 | 0.00 | 0.00 | 0.00 | 40 | 1022.6 |
| 20260504225616 | 61 | 225 | 3.0 | 8.0 | 0.00 | 0.00 | 0.00 | 38 | 1022.6 |
| 20260504224503 | 62 | 232 | 2.0 | 7.0 | 0.00 | 0.00 | 0.00 | 37 | 1022.6 |
| 20260504223817 | 62 | 211 | 2.0 | 6.0 | 0.00 | 0.00 | 0.00 | 36 | 1022.6 |
| 20260504222703 | 62 | 223 | 2.0 | 9.0 | 0.00 | 0.00 | 0.00 | 35 | 1022.6 |
| 20260504222018 | 63 | 250 | 2.0 | 7.0 | 0.00 | 0.00 | 0.00 | 38 | 1022.6 |
| 20260504220903 | 63 | 233 | 2.0 | 7.0 | 0.00 | 0.00 | 0.00 | 36 | 1022.6 |
| 20260504220217 | 63 | 207 | 3.0 | 9.0 | 0.00 | 0.00 | 0.00 | 38 | 1022.6 |
| 20260504215403 | 64 | 200 | 2.0 | 9.0 | 0.00 | 0.00 | 0.00 | 39 | 1022.6 |
| 20260504214503 | 64 | 210 | 2.0 | 6.0 | 0.00 | 0.00 | 0.00 | 41 | 1022.6 |
| 20260504213603 | 64 | 241 | 2.0 | 6.0 | 0.00 | 0.00 | 0.00 | 38 | 1022.6 |
| 20260504212918 | 64 | 212 | 1.0 | 4.0 | 0.00 | 0.00 | 0.00 | 39 | 1022.6 |
| 20260504211803 | 65 | 200 | 2.0 | 8.0 | 0.00 | 0.00 | 0.00 | 41 | 1022.6 |
| 20260504210903 | 65 | 206 | 1.0 | 8.0 | 0.00 | 0.00 | 0.00 | 40 | 1022.6 |
| 20260504210004 | 65 | 219 | 2.0 | 8.0 | 0.00 | 0.00 | 0.00 | 40 | 1022.6 |
| 20260504205403 | 66 | 221 | 2.0 | 8.0 | 0.00 | 0.00 | 0.00 | 41 | 1022.6 |
| 20260504204503 | 66 | 183 | 2.0 | 6.0 | 0.00 | 0.00 | 0.00 | 40 | 1022.6 |
| 20260504203816 | 66 | 195 | 2.0 | 6.0 | 0.00 | 0.00 | 0.00 | 41 | 1023.0 |
| 20260504202703 | 66 | 241 | 2.0 | 7.0 | 0.00 | 0.00 | 0.00 | 41 | 1022.6 |
| 20260504201803 | 67 | 222 | 2.0 | 6.0 | 0.00 | 0.00 | 0.00 | 42 | 1023.0 |
| 20260504200903 | 66 | 251 | 2.0 | 7.0 | 0.00 | 0.00 | 0.00 | 40 | 1023.0 |
| 20260504200218 | 65 | 267 | 3.0 | 8.0 | 0.00 | 0.00 | 0.00 | 42 | 1023.4 |
| 20260504195403 | 66 | 238 | 2.0 | 7.0 | 0.00 | 0.00 | 0.00 | 41 | 1023.4 |
| 20260504194717 | 66 | 188 | 2.0 | 7.0 | 0.00 | 0.00 | 0.00 | 43 | 1023.4 |
| 20260504193603 | 67 | 216 | 2.0 | 7.0 | 0.00 | 0.00 | 0.00 | 42 | 1023.4 |
| 20260504192703 | 66 | 144 | 2.0 | 6.0 | 0.00 | 0.00 | 0.00 | 42 | 1023.8 |
| 20260504191803 | 65 | 174 | 2.0 | 7.0 | 0.00 | 0.00 | 0.00 | 42 | 1023.8 |
| 20260504190903 | 66 | 190 | 2.0 | 9.0 | 0.00 | 0.00 | 0.00 | 41 | 1023.8 |
| 20260504190004 | 66 | 187 | 2.0 | 8.0 | 0.00 | 0.00 | 0.00 | 45 | 1023.8 |
| 20260504185403 | 66 | 219 | 3.0 | 8.0 | 0.00 | 0.00 | 0.00 | 39 | 1024.1 |
| 20260504184503 | 66 | 227 | 2.0 | 7.0 | 0.00 | 0.00 | 0.00 | 38 | 1023.8 |
| 20260504183603 | 64 | 203 | 3.0 | 8.0 | 0.00 | 0.00 | 0.00 | 39 | 1023.8 |
| 20260504182917 | 66 | 224 | 3.0 | 7.0 | 0.00 | 0.00 | 0.00 | 39 | 1024.1 |
| 20260504181803 | 64 | 245 | 3.0 | 8.0 | 0.00 | 0.00 | 0.00 | 41 | 1024.1 |
| 20260504181118 | 64 | 219 | 3.0 | 7.0 | 0.00 | 0.00 | 0.00 | 43 | 1024.1 |
| 20260504180217 | 64 | 207 | 3.0 | 8.0 | 0.00 | 0.00 | 0.00 | 44 | 1024.1 |
| 20260504175617 | 65 | 201 | 2.0 | 7.0 | 0.00 | 0.00 | 0.00 | 44 | 1024.1 |
| 20260504174503 | 64 | 227 | 2.0 | 9.0 | 0.00 | 0.00 | 0.00 | 48 | 1024.1 |
| 20260504173603 | 63 | 201 | 3.0 | 9.0 | 0.00 | 0.00 | 0.00 | 46 | 1024.1 |
| 20260504172917 | 63 | 183 | 2.0 | 6.0 | 0.00 | 0.00 | 0.00 | 47 | 1024.1 |
| 20260504171803 | 62 | 197 | 2.0 | 6.0 | 0.00 | 0.00 | 0.00 | 49 | 1024.5 |
| 20260504171117 | 62 | 151 | 2.0 | 7.0 | 0.00 | 0.00 | 0.00 | 51 | 1024.5 |
| 20260504150903 | 57 | 285 | 1.0 | 4.0 | 0.00 | 0.00 | 0.00 | 48 | 1025.3 |
| 20260504140903 | 59 | 278 | 2.0 | 8.0 | 0.00 | 0.00 | 0.00 | 42 | 1025.7 |
| 20260504130217 | 54 | 285 | 1.0 | 4.0 | 0.00 | 0.00 | 0.00 | 49 | 1024.5 |
| 20260504120217 | 48 | 240 | 2.0 | 4.0 | 0.00 | 0.00 | 0.00 | 55 | 1023.8 |
| 20260504081803 | 41 | 132 | 2.0 | 9.0 | 0.00 | 0.00 | 0.00 | 69 | 1023.8 |
| 20260504080903 | 41 | 111 | 2.0 | 17.0 | 0.00 | 0.00 | 0.00 | 71 | 1023.8 |
| 20260504050003 | 42 | 16 | 0.0 | 2.0 | 0.00 | 0.00 | 0.00 | 56 | 1023.8 |
| 20260504045403 | 42 | 15 | 0.0 | 2.0 | 0.00 | 0.00 | 0.00 | 55 | 1023.8 |
| 20260504044503 | 42 | 15 | 0.0 | 2.0 | 0.00 | 0.00 | 0.00 | 56 | 1024.1 |
| 20260504043816 | 42 | 15 | 0.0 | 3.0 | 0.00 | 0.00 | 0.00 | 55 | 1023.8 |
| 20260504042703 | 42 | 1 | 0.0 | 3.0 | 0.00 | 0.00 | 0.00 | 55 | 1023.8 |
| 20260504041803 | 42 | 347 | 0.0 | 4.0 | 0.00 | 0.00 | 0.00 | 52 | 1023.8 |
| 20260504040903 | 43 | 318 | 2.0 | 8.0 | 0.00 | 0.00 | 0.00 | 50 | 1023.8 |
| 20260504040004 | 43 | 278 | 1.0 | 4.0 | 0.00 | 0.00 | 0.00 | 48 | 1023.8 |
| 20260504035403 | 43 | 205 | 1.0 | 4.0 | 0.00 | 0.00 | 0.00 | 51 | 1023.8 |
| 20260504034503 | 42 | 308 | 1.0 | 3.0 | 0.00 | 0.00 | 0.00 | 48 | 1023.8 |
| 20260504033603 | 42 | 306 | 2.0 | 6.0 | 0.00 | 0.00 | 0.00 | 47 | 1023.8 |
| 20260504032703 | 42 | 304 | 1.0 | 6.0 | 0.00 | 0.00 | 0.00 | 47 | 1023.8 |
| 20260504031803 | 43 | 302 | 0.0 | 3.0 | 0.00 | 0.00 | 0.00 | 45 | 1023.8 |
| 20260504030903 | 43 | 302 | 0.0 | 3.0 | 0.00 | 0.00 | 0.00 | 43 | 1023.4 |
| 20260504030003 | 43 | 302 | 0.0 | 2.0 | 0.00 | 0.00 | 0.00 | 46 | 1023.8 |
| 20260504025403 | 43 | 303 | 1.0 | 6.0 | 0.00 | 0.00 | 0.00 | 48 | 1023.8 |
| 20260504024503 | 42 | 268 | 2.0 | 6.0 | 0.00 | 0.00 | 0.00 | 49 | 1023.8 |
| 20260504023603 | 42 | 224 | 2.0 | 4.0 | 0.00 | 0.00 | 0.00 | 55 | 1023.8 |
| 20260504022703 | 42 | 180 | 1.0 | 4.0 | 0.00 | 0.00 | 0.00 | 54 | 1023.8 |
| 20260504021803 | 42 | 223 | 1.0 | 6.0 | 0.00 | 0.00 | 0.00 | 58 | 1023.8 |
| 20260504020903 | 43 | 219 | 1.0 | 3.0 | 0.00 | 0.00 | 0.00 | 59 | 1024.1 |
| 20260504020004 | 43 | 188 | 0.0 | 2.0 | 0.00 | 0.00 | 0.00 | 59 | 1024.1 |
| 20260504015403 | 43 | 188 | 1.0 | 2.0 | 0.00 | 0.00 | 0.00 | 59 | 1024.1 |
| 20260504014503 | 42 | 194 | 1.0 | 6.0 | 0.00 | 0.00 | 0.00 | 58 | 1023.8 |
| 20260504013603 | 42 | 288 | 1.0 | 3.0 | 0.00 | 0.00 | 0.00 | 59 | 1023.8 |
| 20260504012703 | 43 | 297 | 1.0 | 3.0 | 0.00 | 0.00 | 0.00 | 59 | 1023.4 |
| 20260504011803 | 42 | 293 | 1.0 | 3.0 | 0.00 | 0.00 | 0.00 | 59 | 1023.8 |
| 20260504010903 | 42 | 256 | 0.0 | 3.0 | 0.00 | 0.00 | 0.00 | 61 | 1023.0 |
| 20260504010003 | 43 | 252 | 1.0 | 3.0 | 0.00 | 0.00 | 0.00 | 60 | 1023.4 |
| 20260504005403 | 43 | 251 | 1.0 | 3.0 | 0.00 | 0.00 | 0.00 | 60 | 1023.0 |
| 20260504004503 | 43 | 251 | 0.0 | 2.0 | 0.00 | 0.00 | 0.00 | 59 | 1023.4 |